Time;durP1;ratioP1;P1;durP2;ratioP2;P2;SDS_P1;SDS_P2;PMS_P1;PMS_P2;Temp;Humidity;BMP_temperature;BMP_pressure;BME280_temperature;BME280_humidity;BME280_pressure;Samples;Min_cycle;Max_cycle;Signal;HPM_P1;HPM_P2
2022/10/08 00:01:30;;;;;;;17.10;9.80;;;15.10;99.90;;;;;;5090171;28;20041;-68
2022/10/08 00:03:56;;;;;;;14.43;9.25;;;15.00;99.90;;;;;;5092019;28;20059;-70
2022/10/08 00:06:29;;;;;;;14.25;10.30;;;15.00;99.90;;;;;;5091061;28;20032;-68
2022/10/08 00:08:57;;;;;;;13.20;9.07;;;14.90;99.90;;;;;;5090924;28;20028;-70
2022/10/08 00:11:29;;;;;;;14.55;9.43;;;14.90;99.90;;;;;;5091249;28;20054;-68
2022/10/08 00:13:55;;;;;;;12.00;9.38;;;14.80;99.90;;;;;;5091736;28;20028;-70
2022/10/08 00:16:21;;;;;;;18.17;10.23;;;14.70;99.90;;;;;;5084749;28;20032;-68
2022/10/08 00:18:48;;;;;;;17.85;9.88;;;14.60;99.90;;;;;;5087021;28;20024;-68
2022/10/08 00:21:19;;;;;;;17.48;9.88;;;14.60;99.90;;;;;;5090515;28;20023;-69
2022/10/08 00:23:47;;;;;;;12.20;9.75;;;14.50;99.90;;;;;;5091941;28;20439;-68
2022/10/08 00:26:13;;;;;;;15.63;9.63;;;14.50;99.90;;;;;;5090368;28;20476;-68
2022/10/08 00:28:42;;;;;;;14.93;9.77;;;14.40;99.90;;;;;;5090375;28;20361;-68
2022/10/08 00:31:12;;;;;;;18.35;9.98;;;14.40;99.90;;;;;;5090110;28;20048;-68
2022/10/08 00:33:37;;;;;;;17.17;10.30;;;14.40;99.90;;;;;;5090371;28;20370;-68
2022/10/08 00:36:06;;;;;;;16.80;10.38;;;14.50;99.90;;;;;;5090488;28;20035;-68
2022/10/08 00:38:32;;;;;;;14.95;9.50;;;14.50;99.90;;;;;;5090579;28;20028;-68
2022/10/08 00:41:01;;;;;;;17.25;9.73;;;14.50;99.90;;;;;;5090340;28;20385;-71
2022/10/08 00:43:40;;;;;;;17.42;9.07;;;14.40;99.90;;;;;;5091629;28;20405;-68
2022/10/08 00:46:24;;;;;;;13.48;9.02;;;14.40;99.90;;;;;;5089968;28;20024;-69
2022/10/08 00:49:10;;;;;;;12.32;9.45;;;14.30;99.90;;;;;;5087011;28;20102;-68
2022/10/08 00:51:39;;;;;;;10.48;8.68;;;14.20;99.90;;;;;;5086656;28;20062;-70
2022/10/08 00:54:05;;;;;;;17.00;10.13;;;14.10;99.90;;;;;;5090537;28;20122;-70
2022/10/08 00:56:34;;;;;;;10.80;9.10;;;14.00;99.90;;;;;;5083172;28;20128;-70
2022/10/08 00:59:01;;;;;;;10.98;9.05;;;13.90;99.90;;;;;;5080134;28;20139;-69
2022/10/08 01:01:28;;;;;;;10.98;8.52;;;13.80;99.90;;;;;;5083730;28;20393;-69
2022/10/08 01:03:54;;;;;;;12.38;9.27;;;13.70;99.90;;;;;;5082365;28;20025;-70
2022/10/08 01:06:27;;;;;;;13.02;10.23;;;13.70;99.90;;;;;;5084686;28;20043;-68
2022/10/08 01:09:14;;;;;;;15.48;9.35;;;13.60;99.90;;;;;;5085722;28;20020;-70
2022/10/08 01:11:56;;;;;;;12.00;9.57;;;13.50;99.90;;;;;;5079925;28;20084;-68
2022/10/08 01:14:46;;;;;;;11.35;9.27;;;13.50;99.90;;;;;;5091109;28;20028;-68
2022/10/08 01:17:30;;;;;;;12.97;10.63;;;13.40;99.90;;;;;;5089216;28;20066;-68
2022/10/08 01:20:11;;;;;;;14.45;10.52;;;13.30;99.90;;;;;;5090894;28;20380;-71
2022/10/08 01:22:44;;;;;;;16.13;10.18;;;13.30;99.90;;;;;;5078593;28;20032;-68
2022/10/08 01:25:32;;;;;;;11.40;9.27;;;13.30;99.90;;;;;;5087827;28;20024;-69
2022/10/08 01:28:21;;;;;;;12.20;10.63;;;13.30;99.90;;;;;;5090413;28;20106;-69
2022/10/08 01:30:57;;;;;;;16.30;11.05;;;13.20;99.90;;;;;;5066319;28;20457;-68
2022/10/08 01:33:46;;;;;;;15.45;10.95;;;13.30;99.90;;;;;;5094369;28;20036;-68
2022/10/08 01:36:15;;;;;;;18.38;11.75;;;13.30;99.90;;;;;;5093720;28;20135;-69
2022/10/08 01:38:46;;;;;;;16.60;10.60;;;13.30;99.90;;;;;;5095323;28;20076;-69
2022/10/08 01:41:12;;;;;;;;;;;13.30;99.90;;;;;;5093049;28;20473;-69
2022/10/08 01:43:42;;;;;;;15.15;10.40;;;13.40;99.90;;;;;;5094482;28;19916;-68
2022/10/08 01:46:25;;;;;;;14.80;9.93;;;13.40;99.90;;;;;;5086693;28;20396;-69
2022/10/08 01:48:55;;;;;;;12.85;10.23;;;13.40;99.90;;;;;;5072291;28;20490;-68
2022/10/08 01:51:31;;;;;;;12.50;10.23;;;13.30;99.90;;;;;;5066645;28;20041;-69
2022/10/08 01:54:02;;;;;;;17.30;10.95;;;13.30;99.90;;;;;;5067541;28;20446;-71
2022/10/08 01:56:30;;;;;;;14.00;9.77;;;13.30;99.90;;;;;;5066607;28;20028;-68
2022/10/08 01:59:17;;;;;;;12.15;9.30;;;13.30;99.90;;;;;;5065273;28;20021;-70
2022/10/08 02:01:53;;;;;;;16.23;9.40;;;13.30;99.90;;;;;;5065147;28;20037;-68
2022/10/08 02:04:35;;;;;;;10.75;8.85;;;13.30;99.90;;;;;;5067581;28;20056;-68
2022/10/08 02:07:27;;;;;;;12.18;8.20;;;13.30;99.90;;;;;;5067739;28;20029;-69
2022/10/08 02:10:09;;;;;;;20.33;10.05;;;13.30;99.90;;;;;;5074068;28;20376;-72
2022/10/08 02:12:36;;;;;;;17.77;10.80;;;13.40;99.90;;;;;;5074010;28;20029;-69
2022/10/08 02:15:04;;;;;;;16.05;10.07;;;13.40;99.90;;;;;;5071803;28;20033;-69
2022/10/08 02:17:29;;;;;;;18.27;11.27;;;13.50;99.90;;;;;;5074042;28;20457;-69
2022/10/08 02:20:06;;;;;;;19.75;11.95;;;13.40;99.90;;;;;;5073871;28;20027;-71
2022/10/08 02:22:37;;;;;;;15.63;10.80;;;13.40;99.90;;;;;;5072237;28;20370;-69
2022/10/08 02:25:42;;;;;;;14.80;10.73;;;13.40;99.90;;;;;;5068563;28;20024;-69
2022/10/08 02:28:31;;;;;;;22.33;11.75;;;13.30;99.90;;;;;;5025609;28;20532;-68
2022/10/08 02:31:13;;;;;;;17.40;10.95;;;13.30;99.90;;;;;;5069208;28;20040;-71
2022/10/08 02:33:54;;;;;;;14.48;11.32;;;13.30;99.90;;;;;;5073159;28;20056;-68
2022/10/08 02:36:27;;;;;;;13.15;10.27;;;13.30;99.90;;;;;;5073521;28;20056;-69
2022/10/08 02:39:00;;;;;;;12.48;10.13;;;13.30;99.90;;;;;;5073616;28;20362;-68
2022/10/08 02:41:48;;;;;;;16.25;10.75;;;13.20;99.90;;;;;;5071412;28;20567;-68
2022/10/08 02:44:29;;;;;;;14.02;10.90;;;13.20;99.90;;;;;;5072504;28;20122;-69
2022/10/08 02:46:59;;;;;;;15.15;10.77;;;13.20;99.90;;;;;;5071405;28;20474;-70
2022/10/08 02:49:29;;;;;;;14.43;11.02;;;13.20;99.90;;;;;;5087596;28;20040;-69
2022/10/08 02:52:00;;;;;;;14.07;10.88;;;13.20;99.90;;;;;;5091251;28;20035;-71
2022/10/08 02:54:31;;;;;;;13.32;10.15;;;13.20;99.90;;;;;;5093869;28;20035;-69
2022/10/08 02:57:20;;;;;;;14.13;11.02;;;13.10;99.90;;;;;;5092620;28;20092;-71
2022/10/08 02:59:47;;;;;;;14.10;11.65;;;13.10;99.90;;;;;;5075639;28;20474;-69
2022/10/08 03:02:21;;;;;;;18.92;12.23;;;13.10;99.90;;;;;;5091143;28;20124;-69
2022/10/08 03:04:58;;;;;;;15.00;11.10;;;13.10;99.90;;;;;;5085472;28;20064;-69
2022/10/08 03:07:31;;;;;;;14.95;11.32;;;13.10;99.90;;;;;;5093520;28;20032;-69
2022/10/08 03:09:58;;;;;;;13.50;11.07;;;13.10;99.90;;;;;;5092321;28;20028;-71
2022/10/08 03:12:29;;;;;;;13.65;10.38;;;13.10;99.90;;;;;;5092614;28;20063;-69
2022/10/08 03:14:54;;;;;;;20.75;11.70;;;13.00;99.90;;;;;;5074814;28;20031;-71
2022/10/08 03:17:35;;;;;;;13.05;10.88;;;13.10;99.90;;;;;;5092624;28;20024;-69
2022/10/08 03:20:02;;;;;;;14.23;10.73;;;13.00;99.90;;;;;;5092114;28;20024;-69
2022/10/08 03:22:30;;;;;;;16.02;11.65;;;13.00;99.90;;;;;;5071436;28;20040;-69
2022/10/08 03:24:55;;;;;;;18.38;10.77;;;13.10;99.90;;;;;;5092585;28;20024;-71
2022/10/08 03:27:21;;;;;;;18.92;10.30;;;13.00;99.90;;;;;;5092377;28;20032;-68
2022/10/08 03:29:46;;;;;;;11.45;10.25;;;13.00;99.90;;;;;;5092473;28;20453;-70
2022/10/08 03:32:12;;;;;;;10.70;9.60;;;13.00;99.90;;;;;;5084248;28;20045;-70
2022/10/08 03:34:37;;;;;;;14.80;10.13;;;13.00;99.90;;;;;;5087875;28;20031;-70
2022/10/08 03:37:03;;;;;;;14.43;10.60;;;13.10;99.90;;;;;;5083466;28;20024;-70
2022/10/08 03:39:29;;;;;;;13.63;10.20;;;13.10;99.90;;;;;;5083739;28;20024;-69
2022/10/08 03:41:54;;;;;;;12.27;10.10;;;13.10;99.90;;;;;;5086272;28;20505;-71
2022/10/08 03:44:20;;;;;;;11.70;9.65;;;13.20;99.90;;;;;;5084343;28;20020;-68
2022/10/08 03:46:45;;;;;;;14.35;10.18;;;13.20;99.90;;;;;;5086795;28;20103;-70
2022/10/08 03:49:11;;;;;;;12.82;8.70;;;13.20;99.90;;;;;;5085709;28;20739;-69
2022/10/08 03:51:36;;;;;;;15.50;9.93;;;13.20;99.90;;;;;;5085061;28;20032;-69
2022/10/08 03:54:02;;;;;;;11.23;8.43;;;13.30;99.90;;;;;;5080490;28;20028;-69
2022/10/08 03:56:28;;;;;;;12.32;8.25;;;13.30;99.90;;;;;;5085509;28;20048;-70
2022/10/08 03:58:58;;;;;;;12.75;9.80;;;13.40;99.90;;;;;;5081186;28;20427;-72
2022/10/08 04:01:25;;;;;;;12.63;9.18;;;13.40;99.90;;;;;;5084639;28;20035;-70
2022/10/08 04:03:51;;;;;;;17.73;10.13;;;13.50;99.90;;;;;;5084978;28;20190;-69
2022/10/08 04:06:17;;;;;;;13.57;8.95;;;13.50;99.90;;;;;;5084142;28;20130;-69
2022/10/08 04:08:43;;;;;;;14.57;8.85;;;13.60;99.90;;;;;;5084206;28;20112;-68
2022/10/08 04:11:14;;;;;;;13.38;9.70;;;13.60;99.90;;;;;;5084534;28;20039;-68
2022/10/08 04:13:40;;;;;;;14.02;9.43;;;13.70;99.90;;;;;;5082951;28;20074;-69
2022/10/08 04:16:09;;;;;;;13.43;8.60;;;13.70;99.90;;;;;;5086614;28;20172;-69
2022/10/08 04:18:35;;;;;;;14.38;9.57;;;13.80;99.90;;;;;;5081604;28;20035;-70
2022/10/08 04:21:06;;;;;;;11.23;8.93;;;13.70;99.90;;;;;;5083124;28;20388;-69
2022/10/08 04:23:34;;;;;;;19.77;10.32;;;13.80;99.90;;;;;;5080413;28;20036;-69
2022/10/08 04:26:00;;;;;;;12.93;8.60;;;13.80;99.90;;;;;;5079272;28;20028;-69
2022/10/08 04:28:27;;;;;;;14.23;10.00;;;13.80;99.90;;;;;;5088966;28;20058;-69
2022/10/08 04:30:57;;;;;;;12.73;9.50;;;13.80;99.90;;;;;;5086474;28;21645;-69
2022/10/08 04:33:23;;;;;;;;;;;13.70;99.90;;;;;;5092144;28;20047;-69
2022/10/08 04:35:49;;;;;;;13.38;9.07;;;13.70;99.90;;;;;;5091385;28;19908;-70
2022/10/08 04:38:14;;;;;;;11.73;8.95;;;13.70;99.90;;;;;;5091196;28;20016;-69
2022/10/08 04:40:40;;;;;;;14.05;9.68;;;13.70;99.90;;;;;;5090358;28;20465;-69
2022/10/08 04:43:06;;;;;;;12.57;9.10;;;13.80;99.90;;;;;;5089544;28;20032;-70
2022/10/08 04:45:32;;;;;;;12.40;9.40;;;13.80;99.90;;;;;;5091464;28;20406;-69
2022/10/08 04:47:57;;;;;;;12.63;9.40;;;13.80;99.90;;;;;;5090230;28;20431;-71
2022/10/08 04:50:23;;;;;;;11.75;8.63;;;13.80;99.90;;;;;;5089631;28;20028;-70
2022/10/08 04:52:49;;;;;;;10.77;8.52;;;13.80;99.90;;;;;;5087025;28;20044;-69
2022/10/08 04:55:14;;;;;;;14.57;9.07;;;13.80;99.90;;;;;;5083373;28;20085;-69
2022/10/08 04:57:40;;;;;;;10.48;9.00;;;13.80;99.90;;;;;;5085291;28;20059;-69
2022/10/08 05:00:06;;;;;;;11.23;8.05;;;13.80;99.90;;;;;;5079378;28;20039;-71
2022/10/08 05:02:32;;;;;;;10.93;8.52;;;13.80;99.90;;;;;;5091939;28;20178;-71
2022/10/08 05:04:58;;;;;;;9.32;7.78;;;13.80;99.90;;;;;;5089386;28;20422;-72
2022/10/08 05:07:24;;;;;;;10.27;7.88;;;13.80;99.90;;;;;;5091330;28;20077;-74
2022/10/08 05:09:50;;;;;;;18.33;9.23;;;13.80;99.90;;;;;;5060483;28;20028;-72
2022/10/08 05:12:16;;;;;;;10.55;7.47;;;13.80;99.90;;;;;;5082975;28;20608;-72
2022/10/08 05:14:41;;;;;;;9.25;7.97;;;13.80;99.90;;;;;;5088530;28;20108;-69
2022/10/08 05:17:07;;;;;;;9.10;7.38;;;13.80;99.90;;;;;;5081714;28;20062;-73
2022/10/08 05:19:32;;;;;;;14.95;8.57;;;13.90;99.90;;;;;;5090327;28;20028;-72
2022/10/08 05:21:58;;;;;;;12.55;7.85;;;13.80;99.90;;;;;;5083669;28;20103;-73
2022/10/08 05:24:24;;;;;;;11.77;8.43;;;13.80;99.90;;;;;;5089510;28;20389;-72
2022/10/08 05:26:51;;;;;;;17.08;8.60;;;13.80;99.90;;;;;;5087427;28;20021;-73
2022/10/08 05:29:17;;;;;;;11.10;8.65;;;13.80;99.90;;;;;;5086014;28;20017;-73
2022/10/08 05:31:43;;;;;;;15.38;8.68;;;13.90;99.90;;;;;;5086568;28;20084;-73
2022/10/08 05:34:14;;;;;;;19.38;8.77;;;13.90;99.90;;;;;;5089324;28;20478;-72
2022/10/08 05:36:39;;;;;;;;;;;13.90;99.90;;;;;;5087696;28;20028;-72
2022/10/08 05:39:05;;;;;;;12.82;8.48;;;13.90;99.90;;;;;;5089749;28;19911;-72
2022/10/08 05:41:35;;;;;;;14.85;8.30;;;13.90;99.90;;;;;;5080747;28;20115;-72
2022/10/08 05:44:01;;;;;;;12.30;8.20;;;13.90;99.90;;;;;;5081433;28;20032;-72
2022/10/08 05:46:29;;;;;;;13.98;8.48;;;13.80;99.90;;;;;;5088002;28;20032;-69
2022/10/08 05:48:56;;;;;;;14.27;8.75;;;13.80;99.90;;;;;;5065909;28;20049;-73
2022/10/08 05:51:22;;;;;;;13.48;7.38;;;13.70;99.90;;;;;;5059488;28;20111;-73
2022/10/08 05:53:51;;;;;;;11.88;8.10;;;13.70;99.90;;;;;;5060815;28;20025;-71
2022/10/08 05:56:19;;;;;;;12.98;7.78;;;13.60;99.90;;;;;;5064704;28;20020;-71
2022/10/08 05:58:46;;;;;;;16.67;9.13;;;13.50;99.90;;;;;;5046451;28;20013;-73
2022/10/08 06:01:19;;;;;;;10.82;7.18;;;13.50;99.90;;;;;;5060894;28;20396;-72
2022/10/08 06:03:48;;;;;;;13.43;8.57;;;13.40;99.90;;;;;;5063803;28;20039;-72
2022/10/08 06:06:14;;;;;;;15.70;9.80;;;13.40;99.90;;;;;;5060655;28;20067;-73
2022/10/08 06:08:40;;;;;;;12.25;8.65;;;13.40;99.90;;;;;;5063427;28;20461;-71
2022/10/08 06:11:06;;;;;;;15.10;8.55;;;13.40;99.90;;;;;;5064246;28;20037;-72
2022/10/08 06:13:32;;;;;;;17.02;8.70;;;13.40;99.90;;;;;;5068102;28;20024;-68
2022/10/08 06:16:08;;;;;;;13.82;8.15;;;13.40;99.90;;;;;;5067337;28;20539;-69
2022/10/08 06:18:40;;;;;;;14.43;8.32;;;13.40;99.90;;;;;;5069551;28;20040;-70
2022/10/08 06:21:11;;;;;;;16.95;9.23;;;13.40;99.90;;;;;;5072426;28;20075;-68
2022/10/08 06:23:38;;;;;;;11.82;7.90;;;13.40;99.90;;;;;;5068811;28;20025;-68
2022/10/08 06:26:08;;;;;;;11.82;7.80;;;13.50;99.90;;;;;;5070392;28;20025;-70
2022/10/08 06:28:35;;;;;;;14.45;7.07;;;13.50;99.90;;;;;;5069384;28;20029;-69
2022/10/08 06:31:01;;;;;;;12.45;8.88;;;13.50;99.90;;;;;;5066896;28;20107;-69
2022/10/08 06:33:27;;;;;;;11.05;6.38;;;13.60;99.90;;;;;;5071878;28;20421;-68
2022/10/08 06:35:53;;;;;;;18.35;8.40;;;13.60;99.90;;;;;;5070778;28;20500;-70
2022/10/08 06:38:19;;;;;;;12.77;8.43;;;13.60;99.90;;;;;;5071729;28;20025;-68
2022/10/08 06:40:45;;;;;;;11.95;7.95;;;13.70;99.90;;;;;;5064264;28;20025;-69
2022/10/08 06:43:18;;;;;;;12.10;6.80;;;13.70;99.90;;;;;;5058889;28;20035;-70
2022/10/08 06:45:45;;;;;;;13.27;6.75;;;13.80;99.90;;;;;;5067235;28;20107;-69
2022/10/08 06:48:11;;;;;;;14.20;8.05;;;13.80;99.90;;;;;;5057286;28;20051;-69
2022/10/08 06:50:37;;;;;;;14.43;7.70;;;13.80;99.90;;;;;;5091903;28;20030;-68
2022/10/08 06:53:05;;;;;;;20.95;8.00;;;13.90;99.90;;;;;;5080613;28;20036;-69
2022/10/08 06:55:31;;;;;;;12.80;6.20;;;13.90;99.90;;;;;;5091200;28;20473;-69
2022/10/08 06:57:56;;;;;;;9.15;5.85;;;14.00;99.90;;;;;;5083094;28;20061;-72
2022/10/08 07:00:22;;;;;;;15.02;7.07;;;14.00;99.90;;;;;;5091391;28;20039;-69
2022/10/08 07:02:48;;;;;;;14.30;6.75;;;14.00;99.90;;;;;;5090626;28;20064;-69
2022/10/08 07:05:13;;;;;;;9.55;5.70;;;14.10;99.90;;;;;;5090599;28;20541;-69
2022/10/08 07:07:39;;;;;;;10.90;5.07;;;14.20;99.90;;;;;;5091680;28;20024;-70
2022/10/08 07:10:05;;;;;;;13.32;6.85;;;14.20;99.90;;;;;;5091668;28;20039;-69
2022/10/08 07:12:31;;;;;;;9.25;5.55;;;14.30;99.90;;;;;;5085019;28;20061;-69
2022/10/08 07:14:57;;;;;;;9.55;5.80;;;14.40;99.90;;;;;;5090191;28;20453;-71
2022/10/08 07:17:25;;;;;;;14.52;6.10;;;14.50;99.90;;;;;;5085098;28;20119;-72
2022/10/08 07:19:51;;;;;;;8.75;5.07;;;14.60;99.90;;;;;;5085249;28;20028;-71
2022/10/08 07:22:17;;;;;;;14.10;5.50;;;14.70;99.90;;;;;;5086193;28;20028;-71
2022/10/08 07:24:42;;;;;;;9.35;4.85;;;14.90;99.90;;;;;;5083839;28;20028;-72
2022/10/08 07:27:08;;;;;;;11.18;4.32;;;15.00;99.90;;;;;;5085022;28;20110;-73
2022/10/08 07:29:34;;;;;;;12.93;5.00;;;15.00;99.90;;;;;;5088031;28;20476;-70
2022/10/08 07:31:59;;;;;;;8.30;4.82;;;15.10;99.90;;;;;;5083938;28;20036;-72
2022/10/08 07:34:25;;;;;;;8.02;4.43;;;15.30;99.90;;;;;;5085095;28;20472;-72
2022/10/08 07:36:51;;;;;;;13.45;4.72;;;15.40;99.90;;;;;;5084656;28;20028;-72
2022/10/08 07:39:20;;;;;;;11.15;4.30;;;15.40;99.90;;;;;;5083907;28;20060;-71
2022/10/08 07:41:46;;;;;;;11.38;4.43;;;15.60;99.90;;;;;;5083469;28;20031;-72
2022/10/08 07:44:13;;;;;;;14.13;4.10;;;15.70;99.90;;;;;;5080755;28;20104;-71
2022/10/08 07:46:43;;;;;;;14.70;4.93;;;15.80;99.90;;;;;;5084919;28;20035;-73
2022/10/08 07:49:09;;;;;;;9.40;4.35;;;15.80;99.90;;;;;;5083273;28;20044;-71
2022/10/08 07:51:35;;;;;;;12.40;4.47;;;15.90;99.90;;;;;;5081344;28;20219;-68
2022/10/08 07:54:03;;;;;;;13.65;5.25;;;15.90;99.90;;;;;;5077973;28;20074;-70
2022/10/08 07:56:29;;;;;;;10.95;4.63;;;16.00;99.90;;;;;;5080878;28;20024;-69
2022/10/08 07:58:55;;;;;;;10.07;3.83;;;16.10;99.90;;;;;;5082403;28;20032;-73
2022/10/08 08:01:27;;;;;;;11.68;4.05;;;16.20;99.90;;;;;;5089343;28;20486;-69
2022/10/08 08:03:54;;;;;;;17.88;4.40;;;16.40;99.90;;;;;;5082852;28;20028;-68
2022/10/08 08:06:20;;;;;;;14.57;4.55;;;16.60;99.90;;;;;;5089506;28;20025;-70
2022/10/08 08:08:46;;;;;;;11.80;4.20;;;16.70;99.90;;;;;;5084940;28;20024;-68
2022/10/08 08:11:14;;;;;;;10.52;4.03;;;16.80;99.90;;;;;;5082102;28;20051;-71
2022/10/08 08:13:41;;;;;;;10.00;4.10;;;16.80;99.90;;;;;;5083302;28;20044;-73
2022/10/08 08:16:15;;;;;;;11.75;4.57;;;16.80;99.90;;;;;;5090475;28;20028;-71
2022/10/08 08:18:43;;;;;;;9.75;3.80;;;16.70;99.90;;;;;;5083243;28;20182;-72
2022/10/08 08:21:11;;;;;;;12.43;3.40;;;16.50;99.90;;;;;;5070904;28;20382;-74
2022/10/08 08:23:40;;;;;;;9.23;3.30;;;16.40;99.90;;;;;;5085363;28;20103;-73
2022/10/08 08:26:19;;;;;;;9.65;3.20;;;16.30;99.90;;;;;;5089595;28;20032;-73
2022/10/08 08:28:48;;;;;;;11.57;3.92;;;16.30;99.90;;;;;;5084799;28;20034;-71
2022/10/08 08:31:23;;;;;;;9.80;3.72;;;16.30;99.90;;;;;;5089423;28;20174;-72
2022/10/08 08:33:57;;;;;;;15.10;3.63;;;16.20;99.90;;;;;;5088053;28;20024;-71
2022/10/08 08:36:30;;;;;;;14.07;3.22;;;16.20;99.90;;;;;;5089441;28;20121;-71
2022/10/08 08:38:56;;;;;;;11.70;3.53;;;16.00;99.90;;;;;;5079330;28;20052;-75
2022/10/08 08:41:29;;;;;;;8.25;2.97;;;15.90;99.90;;;;;;5088543;28;20032;-73
2022/10/08 08:44:21;;;;;;;12.13;3.33;;;15.90;99.90;;;;;;5091196;28;20024;-78
2022/10/08 08:46:55;;;;;;;16.38;3.40;;;15.80;99.90;;;;;;5082452;28;20069;-73
2022/10/08 08:49:37;;;;;;;12.80;2.85;;;15.80;99.90;;;;;;5087827;28;20047;-73
2022/10/08 08:52:05;;;;;;;12.90;2.72;;;15.90;99.90;;;;;;5088979;28;20040;-70
2022/10/08 08:54:30;;;;;;;10.02;2.30;;;16.00;99.90;;;;;;5081339;28;20043;-76
2022/10/08 08:57:18;;;;;;;10.95;2.97;;;16.20;99.90;;;;;;5073655;28;20097;-76
2022/10/08 08:59:47;;;;;;;11.02;3.03;;;16.40;99.90;;;;;;5080575;28;20035;-74
2022/10/08 09:02:33;;;;;;;11.77;3.03;;;16.70;99.90;;;;;;5090150;28;20039;-70
2022/10/08 09:05:07;;;;;;;12.25;2.88;;;16.80;99.90;;;;;;5090358;28;20073;-73
2022/10/08 09:07:41;;;;;;;16.40;2.95;;;16.90;99.90;;;;;;5085688;28;20107;-71
2022/10/08 09:10:15;;;;;;;10.98;2.80;;;16.90;99.90;;;;;;5089645;28;20063;-71
2022/10/08 09:12:42;;;;;;;14.18;3.22;;;17.00;99.90;;;;;;5067290;28;20142;-71
2022/10/08 09:15:33;;;;;;;10.52;2.65;;;17.10;99.90;;;;;;5082466;28;20032;-71
2022/10/08 09:18:01;;;;;;;13.20;2.72;;;17.20;99.90;;;;;;5086048;28;20024;-71
2022/10/08 09:20:28;;;;;;;11.00;2.92;;;17.30;99.90;;;;;;5090607;28;20086;-72
2022/10/08 09:22:54;;;;;;;11.45;3.03;;;17.30;99.90;;;;;;5089036;28;20477;-73
2022/10/08 09:25:23;;;;;;;8.05;2.63;;;17.30;99.90;;;;;;5083269;28;20104;-71
2022/10/08 09:27:55;;;;;;;10.05;2.80;;;17.30;99.90;;;;;;5081548;28;20024;-72
2022/10/08 09:30:23;;;;;;;9.32;2.13;;;17.30;99.90;;;;;;5085715;28;20029;-72
2022/10/08 09:32:51;;;;;;;8.13;2.63;;;17.40;99.90;;;;;;5081779;28;20036;-72
2022/10/08 09:35:17;;;;;;;20.00;3.08;;;17.40;99.90;;;;;;5085063;28;20080;-72
2022/10/08 09:37:46;;;;;;;8.63;2.42;;;17.30;99.90;;;;;;5090659;28;20040;-72
2022/10/08 09:40:11;;;;;;;8.70;2.60;;;17.20;99.90;;;;;;5090221;28;20464;-72
2022/10/08 09:42:37;;;;;;;7.63;2.60;;;17.20;99.90;;;;;;5091137;28;20034;-72
2022/10/08 09:45:23;;;;;;;9.52;2.50;;;17.20;99.90;;;;;;5087450;28;20036;-72
2022/10/08 09:48:22;;;;;;;10.55;2.45;;;17.20;99.90;;;;;;5081335;28;20048;-72
2022/10/08 09:51:07;;;;;;;16.77;3.28;;;17.40;99.90;;;;;;5082589;28;20417;-72
2022/10/08 09:53:59;;;;;;;9.10;2.30;;;17.50;99.90;;;;;;5082972;28;20077;-73
2022/10/08 09:56:28;;;;;;;9.50;2.35;;;17.40;99.90;;;;;;5082846;28;20028;-71
2022/10/08 09:59:02;;;;;;;7.38;2.78;;;17.40;99.90;;;;;;5088659;28;20054;-72
2022/10/08 10:01:31;;;;;;;6.13;2.15;;;17.30;99.90;;;;;;5082619;28;20028;-71
2022/10/08 10:04:01;;;;;;;10.20;2.30;;;17.20;99.90;;;;;;5089557;28;20346;-74
2022/10/08 10:06:32;;;;;;;9.60;2.65;;;17.20;99.90;;;;;;5086795;28;20070;-72
2022/10/08 10:09:10;;;;;;;15.43;2.78;;;17.20;99.90;;;;;;5072086;28;20488;-74
2022/10/08 10:11:46;;;;;;;11.90;3.38;;;17.20;99.90;;;;;;5080247;28;20067;-72
2022/10/08 10:14:34;;;;;;;15.35;3.08;;;17.20;99.90;;;;;;5084247;28;20048;-71
2022/10/08 10:17:17;;;;;;;12.90;2.90;;;17.30;99.90;;;;;;5084067;28;20122;-74
2022/10/08 10:19:50;;;;;;;12.98;3.17;;;17.30;99.90;;;;;;5089231;28;20463;-71
2022/10/08 10:22:22;;;;;;;21.08;8.85;;;17.20;99.90;;;;;;5085228;28;20013;-71
2022/10/08 10:24:51;;;;;;;10.52;2.70;;;17.30;99.90;;;;;;5089621;28;20491;-70
2022/10/08 10:28:00;;;;;;;13.27;4.72;;;17.40;99.90;;;;;;5088838;28;20056;-71
2022/10/08 10:30:27;;;;;;;17.30;4.90;;;17.40;99.90;;;;;;5068086;28;20477;-69
2022/10/08 10:32:56;;;;;;;10.80;2.50;;;17.30;99.90;;;;;;5094379;28;20148;-70
2022/10/08 10:35:30;;;;;;;10.15;3.30;;;17.20;99.90;;;;;;5091681;28;20038;-72
2022/10/08 10:38:27;;;;;;;10.77;3.15;;;17.30;99.90;;;;;;5084124;28;20112;-72
2022/10/08 10:41:23;;;;;;;11.60;3.15;;;17.40;99.90;;;;;;5093467;28;20024;-69
2022/10/08 10:44:13;;;;;;;11.20;2.83;;;17.40;99.90;;;;;;5094441;28;20469;-70
2022/10/08 10:46:48;;;;;;;12.88;2.97;;;17.40;99.90;;;;;;5093610;28;20062;-70
2022/10/08 10:49:17;;;;;;;9.05;2.70;;;17.50;99.90;;;;;;5091741;28;20040;-70
2022/10/08 10:52:09;;;;;;;10.15;2.42;;;17.70;99.90;;;;;;5088226;28;20075;-70
2022/10/08 10:54:54;;;;;;;11.93;2.85;;;17.80;99.90;;;;;;5094014;28;20024;-70
2022/10/08 10:57:38;;;;;;;11.60;2.83;;;17.80;99.90;;;;;;5081523;28;20032;-70
2022/10/08 11:00:06;;;;;;;16.38;2.92;;;17.80;99.60;;;;;;5091135;28;20039;-70
2022/10/08 11:02:43;;;;;;;15.32;2.78;;;17.70;99.30;;;;;;5092655;28;20032;-69
2022/10/08 11:05:30;;;;;;;13.02;2.55;;;17.60;99.30;;;;;;5079074;28;20020;-70
2022/10/08 11:08:19;;;;;;;13.00;2.38;;;17.60;99.50;;;;;;5092452;28;20107;-72
2022/10/08 11:10:57;;;;;;;12.55;2.55;;;17.50;99.00;;;;;;5092464;28;20024;-71
2022/10/08 11:13:57;;;;;;;10.77;2.70;;;17.60;99.50;;;;;;5081407;28;20032;-70
2022/10/08 11:16:54;;;;;;;8.60;1.90;;;17.70;98.90;;;;;;5068968;28;20048;-71
2022/10/08 11:19:46;;;;;;;5.53;1.77;;;18.00;98.20;;;;;;5029339;28;20063;-71
2022/10/08 11:22:27;;;;;;;10.38;2.22;;;18.20;97.70;;;;;;5090032;28;20039;-70
2022/10/08 11:25:05;;;;;;;10.07;2.28;;;18.30;98.10;;;;;;5093079;28;20142;-69
2022/10/08 11:27:51;;;;;;;9.73;2.47;;;18.40;98.00;;;;;;5072430;28;20413;-69
2022/10/08 11:30:37;;;;;;;8.63;2.42;;;18.50;97.10;;;;;;5091111;28;20024;-69
2022/10/08 11:33:04;;;;;;;11.07;2.38;;;18.60;96.70;;;;;;5092911;28;20476;-69
2022/10/08 11:35:37;;;;;;;16.45;4.13;;;18.60;96.10;;;;;;5092337;28;20043;-69
2022/10/08 11:38:05;;;;;;;10.15;2.10;;;18.60;96.10;;;;;;5092159;28;20024;-69
2022/10/08 11:40:48;;;;;;;14.05;4.75;;;18.60;96.00;;;;;;5091289;28;20108;-69
2022/10/08 11:43:35;;;;;;;11.70;3.80;;;18.80;96.50;;;;;;5092479;28;20078;-70
2022/10/08 11:46:29;;;;;;;12.15;4.22;;;19.00;95.70;;;;;;5090861;28;20081;-71
2022/10/08 11:49:24;;;;;;;8.70;2.53;;;19.20;95.20;;;;;;5092108;28;20477;-73
2022/10/08 11:51:52;;;;;;;10.20;2.40;;;19.20;94.60;;;;;;5033439;28;20127;-71
2022/10/08 11:54:33;;;;;;;12.25;2.45;;;19.40;93.80;;;;;;5092001;28;20538;-70
2022/10/08 11:57:18;;;;;;;7.50;2.10;;;19.50;93.40;;;;;;5089432;28;20099;-73
2022/10/08 11:59:53;;;;;;;10.35;2.65;;;19.60;93.10;;;;;;5078958;28;20039;-70
2022/10/08 12:02:29;;;;;;;9.32;2.80;;;19.50;93.70;;;;;;5091944;28;20051;-69
2022/10/08 12:04:57;;;;;;;8.63;2.35;;;19.10;93.50;;;;;;5091591;28;20036;-71
2022/10/08 12:07:33;;;;;;;10.93;2.33;;;18.90;94.30;;;;;;5091822;28;20064;-69
2022/10/08 12:10:04;;;;;;;10.00;2.15;;;19.00;94.00;;;;;;5088710;28;20039;-73
2022/10/08 12:12:47;;;;;;;7.80;2.13;;;19.20;93.60;;;;;;5086439;28;20036;-70
2022/10/08 12:15:22;;;;;;;8.45;2.10;;;19.50;93.50;;;;;;5088988;28;20036;-70
2022/10/08 12:18:22;;;;;;;6.82;1.90;;;19.80;93.50;;;;;;5091668;28;20035;-72
2022/10/08 12:21:20;;;;;;;7.07;1.83;;;20.10;92.90;;;;;;5087590;28;20028;-70
2022/10/08 12:23:46;;;;;;;10.45;2.58;;;20.40;92.30;;;;;;5083151;28;20043;-71
2022/10/08 12:26:13;;;;;;;8.98;2.28;;;20.60;91.90;;;;;;5090900;28;20028;-69
2022/10/08 12:28:42;;;;;;;7.20;2.05;;;20.50;91.70;;;;;;5091509;28;20059;-70
2022/10/08 12:31:17;;;;;;;7.68;2.40;;;20.10;91.40;;;;;;5089252;28;20074;-70
2022/10/08 12:33:53;;;;;;;8.13;2.08;;;20.10;91.70;;;;;;5092836;28;20040;-70
2022/10/08 12:37:01;;;;;;;6.28;1.83;;;20.00;91.30;;;;;;5090498;28;20053;-70
2022/10/08 12:39:39;;;;;;;5.43;1.60;;;19.80;91.80;;;;;;5009810;28;20092;-69
2022/10/08 12:42:18;;;;;;;7.70;2.00;;;20.00;92.20;;;;;;5008616;28;20087;-70
2022/10/08 12:44:59;;;;;;;6.97;1.67;;;20.00;92.30;;;;;;5051946;28;20101;-73
2022/10/08 12:47:56;;;;;;;7.35;1.67;;;20.10;91.50;;;;;;5080339;28;20039;-70
2022/10/08 12:50:31;;;;;;;8.70;1.88;;;20.20;91.70;;;;;;5089708;28;20032;-70
2022/10/08 12:53:00;;;;;;;7.28;2.22;;;20.10;91.70;;;;;;5089670;28;20135;-73
2022/10/08 12:55:26;;;;;;;6.20;1.65;;;19.90;91.70;;;;;;5090765;28;20058;-70
2022/10/08 12:57:52;;;;;;;5.53;1.90;;;20.00;92.20;;;;;;5090123;28;20036;-70
2022/10/08 13:00:27;;;;;;;7.72;2.03;;;20.30;91.50;;;;;;5089783;28;20032;-71
2022/10/08 13:03:13;;;;;;;6.00;2.00;;;20.70;91.10;;;;;;5090990;28;20046;-70
2022/10/08 13:05:43;;;;;;;5.65;2.15;;;20.70;89.40;;;;;;5071336;28;20028;-70